Ginys del Meteocat
Campanya meteocatpedra

Dades de l'estació automàtica Torredembarra

?
?
Resum diari 23:00 TU
Dades diàries de l'estació meteorològica
Temperatura mitjana 17.1 °C
Temperatura màxima 20.3 °C 11:48 TU
Temperatura mínima 14.7 °C 5:52 TU
Humitat relativa mitjana 63%
Precipitació acumulada 0.0 mm
Ratxa màxima del vent (10 m) 29.5 km/h - 330º 4:54 TU
Pressió atmosfèrica mitjana 1017.0 hPa
Irradiació solar global 6.2 MJ/m2

El tram horari està expressat en Temps Universal (TU). Cal sumar una hora en horari d'hivern i dues en horari d'estiu per passar a l'hora oficial.

Torredembarra

Metadades estació meteorol´gica
Municipi Torredembarra
Comarca Tarragonès
Altitud 2 m
Data alta 24.11.1999
Estat actual Operativa
Dades de període
Període
TU
TM
°C
TX
°C
TN
°C
HRM
%
PPT
mm
VVM (10 m)
km/h
DVM (10 m)
graus
VVX (10 m)
km/h
PM
hPa
RS
W/m2
00:00 - 00:30 15.9 16.1 15.8 60 0.0 13.0 339 25.6 1014.0 0
00:30 - 01:00 16.1 16.2 16.1 57 0.0 11.2 335 25.2 1014.0 0
01:00 - 01:30 16.3 16.5 16.2 55 0.0 12.6 334 28.4 1014.0 0
01:30 - 02:00 16.0 16.1 15.9 58 0.0 13.0 333 26.6 1014.1 0
02:00 - 02:30 15.8 15.9 15.7 60 0.0 13.7 338 28.4 1014.1 0
02:30 - 03:00 15.7 15.8 15.6 61 0.0 13.7 338 26.6 1014.3 0
03:00 - 03:30 15.6 15.7 15.6 61 0.0 14.8 345 28.8 1014.3 0
03:30 - 04:00 15.6 15.7 15.5 61 0.0 15.1 345 27.4 1014.4 0
04:00 - 04:30 15.6 15.6 15.5 60 0.0 15.5 341 28.1 1014.4 0
04:30 - 05:00 15.5 15.5 15.5 60 0.0 14.8 341 29.5 1014.7 0
05:00 - 05:30 15.4 15.5 15.2 60 0.0 10.4 353 25.6 1015.3 0
05:30 - 06:00 14.9 15.1 14.7 62 0.0 2.2 64 9.7 1015.5 0
06:00 - 06:30 15.2 15.4 15.1 60 0.0 6.8 2 21.6 1015.6 0
06:30 - 07:00 15.2 15.5 15.1 60 0.0 4.0 6 11.2 1015.9 10
07:00 - 07:30 15.5 15.6 15.3 59 0.0 8.3 358 22.3 1016.4 24
07:30 - 08:00 15.4 15.4 15.3 61 0.0 7.6 354 18.0 1016.7 56
08:00 - 08:30 15.4 15.5 15.3 62 0.0 8.3 9 16.6 1017.1 113
08:30 - 09:00 16.2 16.5 15.5 60 0.0 7.6 10 16.2 1017.5 201
09:00 - 09:30 16.8 17.0 16.6 58 0.0 7.9 8 18.0 1018.1 185
09:30 - 10:00 17.1 17.2 17.0 57 0.0 8.6 358 18.0 1018.0 134
10:00 - 10:30 17.2 17.6 17.0 57 0.0 7.2 344 15.8 1017.9 171
10:30 - 11:00 17.8 18.3 17.5 56 0.0 5.8 341 10.8 1018.1 218
11:00 - 11:30 18.4 18.6 18.3 54 0.0 3.2 17 9.0 1018.3 212
11:30 - 12:00 19.7 20.3 18.5 54 0.0 6.1 91 10.8 1017.7 599
12:00 - 12:30 19.4 19.8 19.1 56 0.0 6.8 126 9.7 1017.5 390
12:30 - 13:00 19.4 19.6 19.1 57 0.0 6.1 114 10.1 1017.5 239
13:00 - 13:30 19.7 20.0 19.5 55 0.0 5.0 105 7.6 1017.6 247
13:30 - 14:00 19.8 20.2 19.4 55 0.0 4.3 126 7.9 1017.6 217
14:00 - 14:30 19.4 19.6 19.1 58 0.0 8.6 133 14.4 1017.7 147
14:30 - 15:00 19.3 19.4 19.2 59 0.0 9.7 129 13.7 1017.5 148
15:00 - 15:30 19.1 19.2 19.0 63 0.0 9.7 139 14.8 1017.8 74
15:30 - 16:00 19.0 19.2 18.9 64 0.0 7.9 152 14.0 1017.7 71
16:00 - 16:30 18.9 19.1 18.7 65 0.0 10.1 179 16.2 1018.0 45
16:30 - 17:00 18.6 18.7 18.4 64 0.0 4.0 201 10.4 1017.7 9
17:00 - 17:30 18.3 18.4 18.1 65 0.0 2.9 243 12.2 1018.1 0
17:30 - 18:00 17.7 18.1 17.2 67 0.0 1.8 309 4.7 1018.1 0
18:00 - 18:30 17.4 17.6 17.2 69 0.0 3.2 356 6.5 1018.4 0
18:30 - 19:00 17.1 17.2 16.9 71 0.0 2.2 321 5.0 1018.6 0
19:00 - 19:30 17.0 17.0 16.9 71 0.0 4.7 354 8.3 1018.6 0
19:30 - 20:00 17.0 17.1 16.9 71 0.0 5.8 7 12.6 1018.4 0
20:00 - 20:30 17.0 17.1 17.0 72 0.0 5.0 21 10.1 1018.3 0
20:30 - 21:00 17.1 17.1 17.0 75 0.0 6.1 48 14.4 1018.6 0
21:00 - 21:30 17.0 17.2 16.9 78 0.0 7.2 33 14.8 1018.6 0
21:30 - 22:00 16.8 16.9 16.6 80 0.0 10.4 46 22.0 1018.7 0
22:00 - 22:30 16.4 16.6 16.4 80 0.0 9.0 30 21.2 1018.9 0
22:30 - 23:00 16.4 16.4 16.4 76 0.0 7.6 29 14.4 1018.8 0
23:00 - 23:30 16.5 16.5 16.4 75 0.0 7.9 29 16.2 1018.4 0

Les dades en taronja només han passat un control de qualitat automàtic. Resta pendent la seva validació definitiva.